JST55 YSSY-YSCB
Flight info
| Callsign | JST55 |
|---|---|
| Flight time | 0h 31m |
| Altitude | 16000 |
| Route | WOL H65 CB |
| Aircraft | A320/M-SDE3FGHIRWY/LB1 |
Departure
| Time | 2026-04-25 07:23 |
|---|---|
| Airport | Sydney Kingsford Smith International Airport (YSSY) |
Arrival
| Time | 2026-04-25 07:54 |
|---|---|
| Airport | Canberra Airport (YSCB) |
| Time | Latitude | Longitude | Altitude | Speed | Heading |
|---|---|---|---|---|---|
| 2026-04-25 06:53 | -33.93599 | 151.17750 | 30 ft | 0 kts | 302° |
| 2026-04-25 07:12 | -33.93604 | 151.17759 | 30 ft | 4 kts | 301° |
| 2026-04-25 07:12 | -33.93616 | 151.17788 | 52 ft | 4 kts | 286° |
| 2026-04-25 07:13 | -33.93618 | 151.17814 | 27 ft | 4 kts | 225° |
| 2026-04-25 07:13 | -33.93612 | 151.17820 | 30 ft | 0 kts | 190° |
| 2026-04-25 07:16 | -33.93630 | 151.17816 | 30 ft | 5 kts | 190° |
| 2026-04-25 07:16 | -33.93686 | 151.17800 | 30 ft | 12 kts | 194° |
| 2026-04-25 07:16 | -33.93776 | 151.17773 | 30 ft | 15 kts | 194° |
| 2026-04-25 07:16 | -33.93884 | 151.17774 | 30 ft | 18 kts | 168° |
| 2026-04-25 07:17 | -33.94024 | 151.17811 | 29 ft | 22 kts | 167° |
| 2026-04-25 07:17 | -33.94182 | 151.17852 | 30 ft | 25 kts | 168° |
| 2026-04-25 07:17 | -33.94359 | 151.17898 | 30 ft | 27 kts | 168° |
| 2026-04-25 07:17 | -33.94554 | 151.17890 | 30 ft | 29 kts | 173° |
| 2026-04-25 07:18 | -33.94762 | 151.17943 | 30 ft | 32 kts | 168° |
| 2026-04-25 07:18 | -33.94977 | 151.17999 | 30 ft | 25 kts | 168° |
| 2026-04-25 07:18 | -33.95092 | 151.18060 | 30 ft | 19 kts | 114° |
| 2026-04-25 07:18 | -33.95079 | 151.18222 | 30 ft | 21 kts | 77° |
| 2026-04-25 07:19 | -33.95049 | 151.18385 | 30 ft | 12 kts | 76° |
| 2026-04-25 07:19 | -33.95060 | 151.18490 | 30 ft | 16 kts | 133° |
| 2026-04-25 07:19 | -33.95153 | 151.18584 | 30 ft | 19 kts | 139° |
| 2026-04-25 07:19 | -33.95267 | 151.18696 | 30 ft | 24 kts | 153° |
| 2026-04-25 07:20 | -33.95438 | 151.18754 | 30 ft | 27 kts | 160° |
| 2026-04-25 07:20 | -33.95628 | 151.18800 | 30 ft | 29 kts | 167° |
| 2026-04-25 07:20 | -33.95836 | 151.18853 | 30 ft | 32 kts | 167° |
| 2026-04-25 07:20 | -33.96060 | 151.18913 | 30 ft | 34 kts | 168° |
| 2026-04-25 07:21 | -33.96301 | 151.18974 | 30 ft | 36 kts | 168° |
| 2026-04-25 07:21 | -33.96552 | 151.19041 | 30 ft | 39 kts | 167° |
| 2026-04-25 07:21 | -33.96769 | 151.19068 | 30 ft | 25 kts | 187° |
| 2026-04-25 07:21 | -33.96951 | 151.19099 | 30 ft | 28 kts | 168° |
| 2026-04-25 07:22 | -33.97097 | 151.19138 | 30 ft | 19 kts | 160° |
| 2026-04-25 07:22 | -33.97111 | 151.19285 | 28 ft | 21 kts | 78° |
| 2026-04-25 07:22 | -33.96995 | 151.19355 | 26 ft | 26 kts | 349° |
| 2026-04-25 07:22 | -33.96577 | 151.19248 | 24 ft | 96 kts | 347° |
| 2026-04-25 07:23 | -33.95734 | 151.19037 | 72 ft | 144 kts | 352° |
| 2026-04-25 07:23 | -33.94702 | 151.18784 | 507 ft | 161 kts | 354° |
| 2026-04-25 07:23 | -33.93573 | 151.18905 | 1030 ft | 170 kts | 28° |
| 2026-04-25 07:23 | -33.92706 | 151.19952 | 1515 ft | 192 kts | 65° |
| 2026-04-25 07:24 | -33.92540 | 151.21604 | 2118 ft | 212 kts | 97° |
| 2026-04-25 07:24 | -33.93070 | 151.23373 | 2731 ft | 231 kts | 114° |
| 2026-04-25 07:24 | -33.93653 | 151.25147 | 3796 ft | 221 kts | 100° |
| 2026-04-25 07:24 | -33.93768 | 151.26910 | 4584 ft | 207 kts | 81° |
| 2026-04-25 07:25 | -33.93607 | 151.28723 | 5045 ft | 230 kts | 85° |
| 2026-04-25 07:25 | -33.93545 | 151.30750 | 5515 ft | 254 kts | 88° |
| 2026-04-25 07:25 | -33.93653 | 151.32920 | 6151 ft | 270 kts | 105° |
| 2026-04-25 07:25 | -33.94545 | 151.34920 | 7021 ft | 276 kts | 133° |
| 2026-04-25 07:26 | -33.96111 | 151.36209 | 7949 ft | 278 kts | 160° |
| 2026-04-25 07:26 | -33.98033 | 151.36552 | 8869 ft | 282 kts | 180° |
| 2026-04-25 07:26 | -34.00007 | 151.36442 | 9791 ft | 285 kts | 182° |
| 2026-04-25 07:26 | -34.02022 | 151.36247 | 10411 ft | 301 kts | 186° |
| 2026-04-25 07:27 | -34.04083 | 151.35404 | 10682 ft | 328 kts | 211° |
| 2026-04-25 07:27 | -34.05890 | 151.33622 | 11203 ft | 341 kts | 220° |
| 2026-04-25 07:27 | -34.07665 | 151.31692 | 11927 ft | 346 kts | 221° |
| 2026-04-25 07:27 | -34.09458 | 151.29735 | 12683 ft | 350 kts | 221° |
| 2026-04-25 07:28 | -34.11275 | 151.27753 | 13452 ft | 353 kts | 220° |
| 2026-04-25 07:28 | -34.13094 | 151.25773 | 14197 ft | 356 kts | 220° |
| 2026-04-25 07:28 | -34.14946 | 151.23758 | 14849 ft | 359 kts | 220° |
| 2026-04-25 07:28 | -34.16824 | 151.21715 | 15504 ft | 363 kts | 221° |
| 2026-04-25 07:29 | -34.18711 | 151.19667 | 16136 ft | 367 kts | 219° |
| 2026-04-25 07:29 | -34.20593 | 151.17625 | 16751 ft | 370 kts | 220° |
| 2026-04-25 07:29 | -34.22520 | 151.15529 | 17374 ft | 374 kts | 220° |
| 2026-04-25 07:29 | -34.24465 | 151.13411 | 17993 ft | 378 kts | 220° |
| 2026-04-25 07:30 | -34.26429 | 151.11271 | 18608 ft | 382 kts | 221° |
| 2026-04-25 07:30 | -34.28413 | 151.09108 | 19175 ft | 386 kts | 220° |
| 2026-04-25 07:30 | -34.30416 | 151.06920 | 19749 ft | 389 kts | 220° |
| 2026-04-25 07:30 | -34.32432 | 151.04715 | 20320 ft | 393 kts | 220° |
| 2026-04-25 07:31 | -34.34464 | 151.02491 | 20879 ft | 396 kts | 220° |
| 2026-04-25 07:31 | -34.36515 | 151.00246 | 21438 ft | 399 kts | 220° |
| 2026-04-25 07:31 | -34.38581 | 150.97984 | 21979 ft | 402 kts | 220° |
| 2026-04-25 07:31 | -34.40660 | 150.95709 | 22292 ft | 404 kts | 220° |
| 2026-04-25 07:32 | -34.42750 | 150.93424 | 22367 ft | 404 kts | 220° |
| 2026-04-25 07:32 | -34.44839 | 150.91137 | 22367 ft | 404 kts | 220° |
| 2026-04-25 07:32 | -34.46922 | 150.88854 | 22372 ft | 404 kts | 220° |
| 2026-04-25 07:32 | -34.49007 | 150.86568 | 22366 ft | 404 kts | 220° |
| 2026-04-25 07:33 | -34.51063 | 150.84313 | 22369 ft | 405 kts | 220° |
| 2026-04-25 07:33 | -34.53154 | 150.82017 | 22364 ft | 405 kts | 220° |
| 2026-04-25 07:33 | -34.55225 | 150.79703 | 22363 ft | 406 kts | 224° |
| 2026-04-25 07:33 | -34.57037 | 150.77073 | 22363 ft | 407 kts | 233° |
| 2026-04-25 07:34 | -34.58705 | 150.74286 | 22364 ft | 408 kts | 232° |
| 2026-04-25 07:34 | -34.60372 | 150.71508 | 22362 ft | 406 kts | 232° |
| 2026-04-25 07:34 | -34.62037 | 150.68739 | 22364 ft | 406 kts | 232° |
| 2026-04-25 07:34 | -34.63704 | 150.65973 | 22361 ft | 406 kts | 232° |
| 2026-04-25 07:35 | -34.65377 | 150.63207 | 22362 ft | 406 kts | 232° |
| 2026-04-25 07:35 | -34.67044 | 150.60444 | 22362 ft | 406 kts | 233° |
| 2026-04-25 07:35 | -34.68711 | 150.57672 | 22351 ft | 406 kts | 232° |
| 2026-04-25 07:35 | -34.70373 | 150.54901 | 22359 ft | 406 kts | 232° |
| 2026-04-25 07:36 | -34.72040 | 150.52126 | 22359 ft | 406 kts | 232° |
| 2026-04-25 07:36 | -34.73707 | 150.49352 | 22364 ft | 406 kts | 232° |
| 2026-04-25 07:36 | -34.75372 | 150.46578 | 22364 ft | 406 kts | 233° |
| 2026-04-25 07:36 | -34.77030 | 150.43807 | 22364 ft | 405 kts | 233° |
| 2026-04-25 07:37 | -34.78663 | 150.41071 | 22363 ft | 405 kts | 233° |
| 2026-04-25 07:37 | -34.80339 | 150.38261 | 22364 ft | 405 kts | 233° |
| 2026-04-25 07:37 | -34.81971 | 150.35525 | 22356 ft | 405 kts | 233° |
| 2026-04-25 07:37 | -34.83643 | 150.32724 | 22362 ft | 405 kts | 233° |
| 2026-04-25 07:38 | -34.85261 | 150.30016 | 22164 ft | 397 kts | 233° |
| 2026-04-25 07:38 | -34.86871 | 150.27319 | 21903 ft | 392 kts | 233° |
| 2026-04-25 07:38 | -34.88468 | 150.24640 | 21646 ft | 390 kts | 233° |
| 2026-04-25 07:38 | -34.90058 | 150.21970 | 21411 ft | 388 kts | 233° |
| 2026-04-25 07:39 | -34.91640 | 150.19312 | 21145 ft | 387 kts | 233° |
| 2026-04-25 07:39 | -34.93209 | 150.16673 | 20899 ft | 385 kts | 233° |
| 2026-04-25 07:39 | -34.94774 | 150.14040 | 20653 ft | 384 kts | 233° |
| 2026-04-25 07:39 | -34.96337 | 150.11408 | 20408 ft | 382 kts | 233° |
| 2026-04-25 07:40 | -34.97899 | 150.08775 | 20168 ft | 381 kts | 234° |
| 2026-04-25 07:40 | -34.99440 | 150.06172 | 19919 ft | 379 kts | 234° |
| 2026-04-25 07:40 | -35.00984 | 150.03557 | 19690 ft | 378 kts | 234° |
| 2026-04-25 07:40 | -35.02521 | 150.00948 | 19459 ft | 384 kts | 234° |
| 2026-04-25 07:41 | -35.04138 | 149.98207 | 19224 ft | 412 kts | 234° |
| 2026-04-25 07:41 | -35.05946 | 149.95364 | 18988 ft | 437 kts | 227° |
| 2026-04-25 07:41 | -35.08063 | 149.92634 | 18762 ft | 449 kts | 226° |
| 2026-04-25 07:41 | -35.10215 | 149.89868 | 18509 ft | 451 kts | 226° |
| 2026-04-25 07:42 | -35.12385 | 149.87076 | 18244 ft | 449 kts | 226° |
| 2026-04-25 07:42 | -35.14530 | 149.84310 | 17975 ft | 448 kts | 227° |
| 2026-04-25 07:42 | -35.16671 | 149.81542 | 17718 ft | 446 kts | 227° |
| 2026-04-25 07:42 | -35.18796 | 149.78789 | 17459 ft | 444 kts | 227° |
| 2026-04-25 07:43 | -35.20906 | 149.76053 | 17205 ft | 443 kts | 227° |
| 2026-04-25 07:43 | -35.23023 | 149.73311 | 16949 ft | 441 kts | 227° |
| 2026-04-25 07:43 | -35.25124 | 149.70587 | 16625 ft | 439 kts | 227° |
| 2026-04-25 07:43 | -35.27211 | 149.67879 | 16004 ft | 435 kts | 227° |
| 2026-04-25 07:44 | -35.29276 | 149.65201 | 15400 ft | 431 kts | 227° |
| 2026-04-25 07:44 | -35.31321 | 149.62543 | 14792 ft | 426 kts | 227° |
| 2026-04-25 07:44 | -35.33316 | 149.59948 | 14211 ft | 422 kts | 227° |
| 2026-04-25 07:44 | -35.35319 | 149.57342 | 13560 ft | 418 kts | 227° |
| 2026-04-25 07:45 | -35.37306 | 149.54759 | 12970 ft | 415 kts | 227° |
| 2026-04-25 07:45 | -35.39279 | 149.52193 | 12381 ft | 412 kts | 227° |
| 2026-04-25 07:45 | -35.41234 | 149.49650 | 11804 ft | 408 kts | 227° |
| 2026-04-25 07:45 | -35.43175 | 149.47118 | 11216 ft | 405 kts | 227° |
| 2026-04-25 07:46 | -35.45093 | 149.44610 | 10704 ft | 401 kts | 227° |
| 2026-04-25 07:46 | -35.47000 | 149.42110 | 10253 ft | 397 kts | 227° |
| 2026-04-25 07:46 | -35.48834 | 149.39708 | 10084 ft | 375 kts | 227° |
| 2026-04-25 07:46 | -35.50557 | 149.37455 | 9912 ft | 346 kts | 227° |
| 2026-04-25 07:47 | -35.52135 | 149.35391 | 9758 ft | 318 kts | 228° |
| 2026-04-25 07:47 | -35.53592 | 149.33484 | 9485 ft | 298 kts | 228° |
| 2026-04-25 07:47 | -35.54788 | 149.31469 | 8910 ft | 289 kts | 243° |
| 2026-04-25 07:47 | -35.55475 | 149.29158 | 8185 ft | 289 kts | 259° |
| 2026-04-25 07:48 | -35.55593 | 149.26733 | 7446 ft | 290 kts | 276° |
| 2026-04-25 07:48 | -35.55105 | 149.24343 | 6724 ft | 290 kts | 294° |
| 2026-04-25 07:48 | -35.54045 | 149.22269 | 6183 ft | 282 kts | 312° |
| 2026-04-25 07:48 | -35.52626 | 149.20773 | 5912 ft | 257 kts | 328° |
| 2026-04-25 07:49 | -35.51102 | 149.19880 | 5654 ft | 229 kts | 342° |
| 2026-04-25 07:49 | -35.49624 | 149.19492 | 5398 ft | 206 kts | 354° |
| 2026-04-25 07:49 | -35.48274 | 149.19448 | 5166 ft | 181 kts | 359° |
| 2026-04-25 07:49 | -35.47470 | 149.19448 | 4995 ft | 169 kts | 359° |
| 2026-04-25 07:50 | -35.45949 | 149.19447 | 4718 ft | 159 kts | 359° |
| 2026-04-25 07:50 | -35.45221 | 149.19447 | 4577 ft | 157 kts | 359° |
| 2026-04-25 07:50 | -35.44130 | 149.19446 | 4358 ft | 156 kts | 359° |
| 2026-04-25 07:50 | -35.43049 | 149.19446 | 4161 ft | 155 kts | 359° |
| 2026-04-25 07:51 | -35.41978 | 149.19446 | 3957 ft | 154 kts | 359° |
| 2026-04-25 07:51 | -35.40907 | 149.19445 | 3759 ft | 154 kts | 359° |
| 2026-04-25 07:51 | -35.39841 | 149.19445 | 3558 ft | 153 kts | 359° |
| 2026-04-25 07:51 | -35.38779 | 149.19445 | 3351 ft | 152 kts | 360° |
| 2026-04-25 07:52 | -35.37719 | 149.19445 | 3145 ft | 152 kts | 360° |
| 2026-04-25 07:52 | -35.36662 | 149.19445 | 2942 ft | 151 kts | 360° |
| 2026-04-25 07:52 | -35.35613 | 149.19443 | 2748 ft | 151 kts | 0° |
| 2026-04-25 07:52 | -35.34565 | 149.19433 | 2547 ft | 150 kts | 0° |
| 2026-04-25 07:53 | -35.33521 | 149.19427 | 2325 ft | 151 kts | 1° |
| 2026-04-25 07:53 | -35.32491 | 149.19454 | 2117 ft | 151 kts | 0° |
| 2026-04-25 07:53 | -35.31456 | 149.19444 | 1929 ft | 148 kts | 1° |
| 2026-04-25 07:53 | -35.30495 | 149.19440 | 1880 ft | 121 kts | 0° |
| 2026-04-25 07:54 | -35.29820 | 149.19443 | 1879 ft | 72 kts | 360° |
| 2026-04-25 07:54 | -35.29409 | 149.19444 | 1878 ft | 54 kts | 360° |
| 2026-04-25 07:54 | -35.29119 | 149.19444 | 1879 ft | 21 kts | 353° |
| 2026-04-25 07:54 | -35.29073 | 149.19312 | 1879 ft | 20 kts | 267° |
| 2026-04-25 07:55 | -35.29177 | 149.19242 | 1879 ft | 19 kts | 182° |
| 2026-04-25 07:55 | -35.29319 | 149.19242 | 1878 ft | 22 kts | 180° |
| 2026-04-25 07:55 | -35.29477 | 149.19241 | 1879 ft | 24 kts | 180° |
| 2026-04-25 07:55 | -35.29651 | 149.19242 | 1879 ft | 26 kts | 180° |
| 2026-04-25 07:56 | -35.29839 | 149.19242 | 1880 ft | 28 kts | 180° |
| 2026-04-25 07:56 | -35.30024 | 149.19242 | 1880 ft | 26 kts | 180° |
| 2026-04-25 07:56 | -35.30205 | 149.19240 | 1880 ft | 22 kts | 180° |
| 2026-04-25 07:56 | -35.30366 | 149.19240 | 1877 ft | 23 kts | 180° |
| 2026-04-25 07:57 | -35.30515 | 149.19239 | 1880 ft | 19 kts | 180° |
| 2026-04-25 07:57 | -35.30563 | 149.19238 | 1876 ft | 1 kts | 181° |
| 2026-04-25 07:57 | -35.30596 | 149.19238 | 1878 ft | 8 kts | 181° |
| 2026-04-25 07:57 | -35.30657 | 149.19237 | 1879 ft | 0 kts | 181° |
| 2026-04-25 07:58 | -35.30684 | 149.19238 | 1880 ft | 8 kts | 176° |
| 2026-04-25 07:58 | -35.30747 | 149.19229 | 1880 ft | 9 kts | 237° |
| 2026-04-25 07:58 | -35.30750 | 149.19181 | 1880 ft | 5 kts | 262° |
| 2026-04-25 07:58 | -35.30756 | 149.19141 | 1880 ft | 0 kts | 259° |
| 2026-04-25 07:59 | -35.30756 | 149.19140 | 1880 ft | 0 kts | 259° |